Time;durP1;ratioP1;P1;durP2;ratioP2;P2;SDS_P1;SDS_P2;PMS_P1;PMS_P2;Temp;Humidity;BMP_temperature;BMP_pressure;BME280_temperature;BME280_humidity;BME280_pressure;Samples;Min_cycle;Max_cycle;Signal;HPM_P1;HPM_P2
2024/03/27 00:01:12;;;;;;;4.40;2.40;;;10.60;69.50;;;;;;6154193;23;20375;-77
2024/03/27 00:03:39;;;;;;;4.07;2.33;;;10.70;69.70;;;;;;6076184;23;20451;-77
2024/03/27 00:06:10;;;;;;;3.00;1.97;;;10.60;69.90;;;;;;6099515;23;20398;-77
2024/03/27 00:08:40;;;;;;;3.60;2.00;;;10.60;70.00;;;;;;6098129;23;20374;-76
2024/03/27 00:11:16;;;;;;;3.60;2.07;;;10.60;70.20;;;;;;6077986;23;20409;-76
2024/03/27 00:13:46;;;;;;;2.50;1.60;;;10.60;70.30;;;;;;6097930;23;20748;-78
2024/03/27 00:16:35;;;;;;;4.80;2.40;;;10.60;70.20;;;;;;6099287;23;20389;-76
2024/03/27 00:19:30;;;;;;;3.20;2.03;;;10.60;70.10;;;;;;6100567;23;20389;-77
2024/03/27 00:22:00;;;;;;;4.23;2.60;;;10.60;70.00;;;;;;6102901;23;20384;-76
2024/03/27 00:24:36;;;;;;;6.53;2.90;;;10.60;69.70;;;;;;6099191;23;20494;-77
2024/03/27 00:27:03;;;;;;;3.60;2.43;;;10.70;69.50;;;;;;6026604;23;20413;-76
2024/03/27 00:30:25;;;;;;;3.60;2.33;;;10.70;69.40;;;;;;6049821;23;20396;-76
2024/03/27 00:33:06;;;;;;;4.80;2.80;;;10.70;69.20;;;;;;6099532;23;20379;-76
2024/03/27 00:35:38;;;;;;;3.60;2.73;;;10.70;68.90;;;;;;6103719;23;20446;-77
2024/03/27 00:38:14;;;;;;;5.57;2.50;;;10.70;68.90;;;;;;6122067;23;20462;-77
2024/03/27 00:41:00;;;;;;;5.30;2.40;;;10.60;68.70;;;;;;6068188;23;20389;-76
2024/03/27 00:43:35;;;;;;;7.90;2.80;;;10.70;68.70;;;;;;6070489;23;20381;-77
2024/03/27 00:48:52;;;;;;;5.50;2.60;;;10.60;68.60;;;;;;6223686;22;20744;-76
2024/03/27 00:51:18;;;;;;;4.20;2.03;;;10.60;68.70;;;;;;6249074;23;20400;-77
2024/03/27 00:53:43;;;;;;;3.27;1.93;;;10.60;68.90;;;;;;6221214;23;20159;-75
2024/03/27 00:56:09;;;;;;;2.30;1.80;;;10.60;68.80;;;;;;6198209;23;20175;-75
2024/03/27 00:58:34;;;;;;;3.73;1.93;;;10.60;68.90;;;;;;6222384;23;20148;-77
2024/03/27 01:01:00;;;;;;;2.63;1.87;;;10.60;68.90;;;;;;6223088;23;20541;-78
2024/03/27 01:03:26;;;;;;;5.23;3.00;;;10.50;69.00;;;;;;6249334;23;20136;-75
2024/03/27 01:05:52;;;;;;;3.83;2.63;;;10.50;68.90;;;;;;6222324;23;20210;-77
2024/03/27 01:08:20;;;;;;;5.37;3.27;;;10.50;68.70;;;;;;6249675;23;20518;-75
2024/03/27 01:10:46;;;;;;;3.53;2.50;;;10.50;68.80;;;;;;6249063;23;20669;-75
2024/03/27 01:13:17;;;;;;;3.80;2.37;;;10.50;69.00;;;;;;6223575;23;20373;-78
2024/03/27 01:15:48;;;;;;;4.77;2.70;;;10.50;69.10;;;;;;6249339;23;20137;-76
2024/03/27 01:18:14;;;;;;;8.47;3.93;;;10.50;69.00;;;;;;6250145;23;20385;-75
2024/03/27 01:20:40;;;;;;;7.37;3.33;;;10.50;69.00;;;;;;6249530;23;20799;-75
2024/03/27 01:23:05;;;;;;;7.00;2.80;;;10.50;69.10;;;;;;6249041;23;20141;-76
2024/03/27 01:25:31;;;;;;;4.80;2.93;;;10.50;69.20;;;;;;6223760;23;20264;-76
2024/03/27 01:27:56;;;;;;;4.70;2.93;;;10.40;69.10;;;;;;6224925;23;20180;-77
2024/03/27 01:30:22;;;;;;;7.50;3.00;;;10.40;69.20;;;;;;6223090;23;20365;-77
2024/03/27 01:32:48;;;;;;;5.20;3.00;;;10.40;69.40;;;;;;6224991;23;20142;-77
2024/03/27 01:35:14;;;;;;;5.27;2.90;;;10.40;69.60;;;;;;6224529;23;20176;-76
2024/03/27 01:37:39;;;;;;;7.27;3.30;;;10.40;69.80;;;;;;6252080;23;20475;-75
2024/03/27 01:40:05;;;;;;;3.33;2.87;;;10.40;69.90;;;;;;6251871;23;20138;-76
2024/03/27 01:42:34;;;;;;;4.77;2.80;;;10.30;69.80;;;;;;6252204;23;20138;-77
2024/03/27 01:45:00;;;;;;;6.33;3.20;;;10.30;69.90;;;;;;6252383;23;20367;-77
2024/03/27 01:47:26;;;;;;;8.07;3.30;;;10.30;70.00;;;;;;6225717;23;20853;-78
2024/03/27 01:49:52;;;;;;;9.60;4.13;;;10.30;70.00;;;;;;6223291;23;20504;-76
2024/03/27 01:52:17;;;;;;;9.97;3.57;;;10.30;70.10;;;;;;6224370;23;20170;-77
2024/03/27 01:54:43;;;;;;;3.70;2.43;;;10.20;70.20;;;;;;6231837;23;20225;-76
2024/03/27 01:57:09;;;;;;;4.73;2.43;;;10.20;70.20;;;;;;6250955;23;20161;-76
2024/03/27 01:59:35;;;;;;;4.77;2.50;;;10.20;70.40;;;;;;6250812;23;20125;-75
2024/03/27 02:02:02;;;;;;;3.93;2.20;;;10.10;70.50;;;;;;6253313;23;20364;-76
2024/03/27 02:04:28;;;;;;;4.30;2.20;;;10.10;70.70;;;;;;6254206;23;20360;-76
2024/03/27 02:06:55;;;;;;;2.33;1.87;;;10.00;70.60;;;;;;6254234;23;20419;-77
2024/03/27 02:09:21;;;;;;;3.90;2.97;;;10.10;71.00;;;;;;6227499;23;20348;-77
2024/03/27 02:11:47;;;;;;;6.20;2.30;;;10.00;71.00;;;;;;6226590;23;20643;-76
2024/03/27 02:14:15;;;;;;;3.47;2.80;;;10.00;71.00;;;;;;6254666;23;20137;-76
2024/03/27 02:16:41;;;;;;;3.80;2.47;;;10.00;71.00;;;;;;6254005;23;20485;-76
2024/03/27 02:19:07;;;;;;;6.23;3.17;;;10.00;71.00;;;;;;6226185;23;20391;-76
2024/03/27 02:21:35;;;;;;;3.17;2.57;;;10.00;70.90;;;;;;6253231;23;20372;-76
2024/03/27 02:24:27;;;;;;;4.13;2.83;;;10.00;70.90;;;;;;6252985;23;20138;-76
2024/03/27 02:26:52;;;;;;;3.70;2.50;;;10.00;70.70;;;;;;6227043;23;20738;-77
2024/03/27 02:29:18;;;;;;;3.90;2.90;;;10.00;70.70;;;;;;6226411;23;20359;-76
2024/03/27 02:31:43;;;;;;;6.43;2.93;;;10.10;70.80;;;;;;6226320;23;20161;-77
2024/03/27 02:34:09;;;;;;;3.53;2.40;;;10.10;70.80;;;;;;6252391;23;20161;-74
2024/03/27 02:36:35;;;;;;;2.97;2.47;;;10.10;70.90;;;;;;6226134;23;20176;-77
2024/03/27 02:39:00;;;;;;;3.10;2.23;;;10.10;70.90;;;;;;6258705;23;20156;-74
2024/03/27 02:41:26;;;;;;;3.43;2.37;;;10.10;71.10;;;;;;6263425;23;20145;-75
2024/03/27 02:43:52;;;;;;;4.20;2.70;;;10.00;71.20;;;;;;6235296;23;20168;-75
2024/03/27 02:46:17;;;;;;;4.67;2.67;;;10.00;71.30;;;;;;6260279;23;20185;-77
2024/03/27 02:48:43;;;;;;;4.57;2.60;;;9.90;72.60;;;;;;6227502;23;20447;-77
2024/03/27 02:51:08;;;;;;;4.70;2.57;;;9.90;72.50;;;;;;6254047;23;20224;-76
2024/03/27 02:53:34;;;;;;;7.30;2.67;;;9.90;72.50;;;;;;6253580;23;20510;-76
2024/03/27 02:56:00;;;;;;;2.80;2.10;;;9.90;72.60;;;;;;6226917;23;20165;-76
2024/03/27 02:58:25;;;;;;;3.30;2.17;;;9.90;72.70;;;;;;6252644;23;20133;-77
2024/03/27 03:00:51;;;;;;;3.53;2.57;;;9.90;72.80;;;;;;6253215;23;20465;-75
2024/03/27 03:03:16;;;;;;;2.40;2.00;;;9.90;72.80;;;;;;6253755;23;20148;-77
2024/03/27 03:05:42;;;;;;;3.17;2.77;;;9.90;72.80;;;;;;6252377;23;20200;-78
2024/03/27 03:08:08;;;;;;;3.70;2.40;;;9.90;72.80;;;;;;6253013;23;20216;-76
2024/03/27 03:10:34;;;;;;;4.63;2.40;;;9.90;72.80;;;;;;6252843;23;20395;-75
2024/03/27 03:13:00;;;;;;;4.73;2.80;;;9.90;72.70;;;;;;6253093;23;20356;-75
2024/03/27 03:15:25;;;;;;;9.10;4.30;;;9.90;72.70;;;;;;6225657;23;20140;-76
2024/03/27 03:17:51;;;;;;;3.70;2.90;;;9.90;72.60;;;;;;6252574;23;20180;-76
2024/03/27 03:20:17;;;;;;;3.63;2.50;;;9.90;72.50;;;;;;6226239;23;20149;-76
2024/03/27 03:22:43;;;;;;;4.57;2.37;;;9.90;72.50;;;;;;6252937;23;20215;-76
2024/03/27 03:25:08;;;;;;;5.40;2.97;;;9.90;72.70;;;;;;6252482;23;20376;-76
2024/03/27 03:27:34;;;;;;;5.50;3.30;;;9.90;72.80;;;;;;6226738;23;20181;-76
2024/03/27 03:30:00;;;;;;;8.77;3.03;;;9.90;72.90;;;;;;6253162;23;20165;-75
2024/03/27 03:32:26;;;;;;;5.23;2.67;;;9.90;72.90;;;;;;6225564;23;20494;-75
2024/03/27 03:34:51;;;;;;;6.10;3.03;;;9.90;73.00;;;;;;6225405;23;20385;-75
2024/03/27 03:37:17;;;;;;;6.23;3.40;;;9.90;73.20;;;;;;6227706;23;20192;-75
2024/03/27 03:39:43;;;;;;;6.53;3.43;;;9.90;73.40;;;;;;6253349;23;20145;-77
2024/03/27 03:42:08;;;;;;;8.43;3.67;;;9.90;73.50;;;;;;6252235;23;20152;-75
2024/03/27 03:44:34;;;;;;;5.60;3.30;;;9.90;73.70;;;;;;6226661;23;20183;-76
2024/03/27 03:47:00;;;;;;;4.30;2.40;;;9.90;73.80;;;;;;6202588;23;20173;-77
2024/03/27 03:49:26;;;;;;;4.77;3.30;;;9.90;74.10;;;;;;6255223;23;20417;-78
2024/03/27 03:51:51;;;;;;;3.80;2.80;;;9.90;74.00;;;;;;6233788;23;20176;-77
2024/03/27 03:54:17;;;;;;;5.23;3.50;;;9.90;74.20;;;;;;6233854;23;20146;-76
2024/03/27 03:56:42;;;;;;;4.07;3.00;;;9.90;74.30;;;;;;6253122;23;20614;-76
2024/03/27 03:59:08;;;;;;;5.30;3.10;;;9.90;74.50;;;;;;6227455;23;20133;-74
2024/03/27 04:01:33;;;;;;;5.77;3.10;;;9.90;74.70;;;;;;6254006;23;20149;-76
2024/03/27 04:03:59;;;;;;;8.10;5.07;;;9.90;74.90;;;;;;6251606;23;20142;-78
2024/03/27 04:06:27;;;;;;;4.57;3.47;;;9.90;74.90;;;;;;6250757;23;20184;-75
2024/03/27 04:08:53;;;;;;;4.30;3.07;;;9.90;75.00;;;;;;6199936;23;20431;-76
2024/03/27 04:11:18;;;;;;;3.60;2.90;;;9.80;74.90;;;;;;6224382;23;20416;-76
2024/03/27 04:13:44;;;;;;;3.70;2.90;;;9.80;74.70;;;;;;6224559;23;20397;-75
2024/03/27 04:16:09;;;;;;;5.20;3.33;;;9.90;74.70;;;;;;6224650;23;20188;-76
2024/03/27 04:18:35;;;;;;;4.10;2.90;;;9.90;74.60;;;;;;6200227;23;20158;-75
2024/03/27 04:21:10;;;;;;;4.30;2.63;;;9.90;74.60;;;;;;6225407;23;20141;-76
2024/03/27 04:23:36;;;;;;;5.30;3.00;;;9.90;74.60;;;;;;6251975;23;20148;-74
2024/03/27 04:26:01;;;;;;;4.23;2.47;;;9.90;74.50;;;;;;6224281;23;20387;-76
2024/03/27 04:28:27;;;;;;;4.60;2.50;;;9.90;74.60;;;;;;6224937;23;20207;-77
2024/03/27 04:30:53;;;;;;;5.20;2.90;;;9.90;74.70;;;;;;6226411;23;20165;-76
2024/03/27 04:33:19;;;;;;;4.50;2.80;;;9.90;74.90;;;;;;6252190;23;20133;-76
2024/03/27 04:35:45;;;;;;;7.10;3.20;;;9.90;75.10;;;;;;6251237;23;20144;-77
2024/03/27 04:38:11;;;;;;;6.13;2.70;;;9.90;75.20;;;;;;6224793;23;20360;-76
2024/03/27 04:40:37;;;;;;;5.20;3.20;;;9.90;75.30;;;;;;6225205;23;20233;-77
2024/03/27 04:43:03;;;;;;;4.30;3.03;;;9.90;75.40;;;;;;6199776;23;20211;-76
2024/03/27 04:45:29;;;;;;;3.83;2.30;;;9.90;75.70;;;;;;6199325;23;20152;-77
2024/03/27 04:47:55;;;;;;;2.80;2.03;;;9.90;75.90;;;;;;6251121;23;20520;-76
2024/03/27 04:50:20;;;;;;;2.67;2.37;;;9.80;76.00;;;;;;6224699;23;20439;-76
2024/03/27 04:52:46;;;;;;;6.37;3.67;;;9.90;76.20;;;;;;6225631;23;20159;-77
2024/03/27 04:55:12;;;;;;;5.67;2.90;;;9.90;76.40;;;;;;6226123;23;20129;-77
2024/03/27 04:57:38;;;;;;;3.80;2.60;;;9.90;76.50;;;;;;6268312;23;20161;-75
2024/03/27 05:00:12;;;;;;;3.17;2.53;;;9.90;76.90;;;;;;6221773;23;20365;-76
2024/03/27 05:02:44;;;;;;;2.80;2.13;;;9.90;76.80;;;;;;6222110;23;20414;-76
2024/03/27 05:05:10;;;;;;;3.40;2.50;;;9.90;76.90;;;;;;6247289;23;20376;-76
2024/03/27 05:07:38;;;;;;;4.17;3.33;;;10.00;75.80;;;;;;6221962;23;20411;-77
2024/03/27 05:10:05;;;;;;;6.50;2.40;;;10.00;75.90;;;;;;6247303;22;20405;-77
2024/03/27 05:12:45;;;;;;;6.60;2.77;;;10.00;76.00;;;;;;6246936;23;20388;-78
2024/03/27 05:15:13;;;;;;;4.80;2.57;;;10.00;76.10;;;;;;6185288;23;20394;-76
2024/03/27 05:17:41;;;;;;;5.33;2.53;;;10.00;76.20;;;;;;6186272;23;20394;-76
2024/03/27 05:20:09;;;;;;;4.40;2.73;;;10.00;76.30;;;;;;6185723;23;20433;-76
2024/03/27 05:22:36;;;;;;;3.07;2.43;;;10.00;76.50;;;;;;6186559;23;20453;-76
2024/03/27 05:25:04;;;;;;;2.90;2.30;;;10.00;76.80;;;;;;6186305;23;20744;-75
2024/03/27 05:27:31;;;;;;;3.77;2.80;;;10.00;76.90;;;;;;6184786;23;20395;-74
2024/03/27 05:29:59;;;;;;;3.30;2.70;;;10.00;77.20;;;;;;6149308;23;20427;-74
2024/03/27 05:32:29;;;;;;;4.93;3.10;;;10.00;77.50;;;;;;6127675;23;20384;-77
2024/03/27 05:35:11;;;;;;;4.40;3.20;;;10.00;77.80;;;;;;6101715;23;20396;-77
2024/03/27 05:38:00;;;;;;;4.27;3.17;;;10.00;78.10;;;;;;6053751;23;20396;-76
2024/03/27 05:40:32;;;;;;;3.40;2.57;;;10.00;78.20;;;;;;6150298;23;20447;-77
2024/03/27 05:43:46;;;;;;;3.40;2.60;;;10.00;78.40;;;;;;6063423;23;20390;-79
2024/03/27 05:46:45;;;;;;;3.47;2.93;;;10.00;79.40;;;;;;6086035;23;20418;-76
2024/03/27 05:49:32;;;;;;;4.93;2.10;;;10.10;78.90;;;;;;6051853;23;20417;-77
2024/03/27 05:52:10;;;;;;;4.30;2.30;;;10.10;79.10;;;;;;6070519;23;20401;-77
2024/03/27 05:54:54;;;;;;;4.17;2.00;;;10.10;79.20;;;;;;5995336;23;20460;-77
2024/03/27 06:00:25;;;;;;;3.07;1.87;;;10.20;79.70;;;;;;6205370;23;20429;-76
2024/03/27 06:03:15;;;;;;;4.17;2.70;;;10.20;79.80;;;;;;6113112;23;20382;-78
2024/03/27 06:08:51;;;;;;;2.80;2.20;;;10.30;80.10;;;;;;6182551;23;20526;-78
2024/03/27 06:11:21;;;;;;;2.30;2.10;;;10.30;80.40;;;;;;6132739;23;20447;-76
2024/03/27 06:14:00;;;;;;;2.40;2.10;;;10.40;80.80;;;;;;6111229;23;20397;-77
2024/03/27 06:16:31;;;;;;;2.40;1.60;;;10.40;81.10;;;;;;6110655;23;20415;-75
2024/03/27 06:19:40;;;;;;;2.60;2.07;;;10.40;81.30;;;;;;6158261;23;20365;-75
2024/03/27 06:22:42;;;;;;;3.70;2.67;;;10.40;81.40;;;;;;6086440;23;20410;-77
2024/03/27 06:25:27;;;;;;;5.20;2.80;;;10.50;81.90;;;;;;6123718;23;20381;-77
2024/03/27 06:28:14;;;;;;;5.03;3.07;;;10.60;82.10;;;;;;6123863;23;20400;-76
2024/03/27 06:30:44;;;;;;;5.33;3.33;;;10.60;82.30;;;;;;6123808;23;20409;-76
2024/03/27 06:36:06;;;;;;;6.10;2.73;;;10.60;82.90;;;;;;6175688;23;20463;-77
2024/03/27 06:38:55;;;;;;;3.80;3.23;;;10.60;83.10;;;;;;6184414;23;20361;-77
2024/03/27 06:47:37;;;;;;;3.67;2.60;;;10.70;84.20;;;;;;6220093;22;20489;-77
2024/03/27 19:53:57;;;;;;;6.30;3.83;;;8.60;99.90;;;;;;6225846;22;20423;-78
2024/03/27 22:10:51;;;;;;;8.50;3.73;;;8.20;99.90;;;;;;6266798;22;20441;-79
2024/03/27 22:27:40;;;;;;;4.77;3.57;;;8.10;99.90;;;;;;6162040;23;20551;-74
2024/03/27 22:33:53;;;;;;;4.80;3.63;;;8.10;99.90;;;;;;6184628;23;20430;-78
2024/03/27 22:42:52;;;;;;;11.20;4.93;;;8.00;99.90;;;;;;6243651;23;20420;-79
2024/03/27 23:36:58;;;;;;;9.33;5.27;;;7.90;99.90;;;;;;6236860;22;20443;-76
2024/03/27 23:39:34;;;;;;;5.73;3.70;;;7.90;99.90;;;;;;6215900;23;20400;-78
2024/03/27 23:42:00;;;;;;;8.00;3.73;;;7.90;99.90;;;;;;6166876;23;20384;-78
2024/03/27 23:44:30;;;;;;;5.70;3.57;;;7.90;99.90;;;;;;6191305;23;20446;-78
2024/03/27 23:49:40;;;;;;;6.03;3.50;;;7.90;99.90;;;;;;6237403;22;20432;-78
2024/03/27 23:52:47;;;;;;;5.40;3.80;;;7.90;99.90;;;;;;6213245;23;20393;-77
2024/03/27 23:55:38;;;;;;;5.73;4.07;;;7.90;99.90;;;;;;6221184;23;20389;-77
2024/03/27 23:58:21;;;;;;;5.70;4.00;;;7.90;99.90;;;;;;6186868;23;20384;-77
